createdAt,value
2019-01-30T00:00:46.554Z,2.52
2019-01-30T00:01:51.077Z,2.47
2019-01-30T00:02:56.163Z,2.51
2019-01-30T00:04:00.929Z,2.64
2019-01-30T00:05:05.852Z,2.56
2019-01-30T00:06:11.052Z,2.42
2019-01-30T00:07:15.528Z,2.43
2019-01-30T00:08:20.307Z,2.40
2019-01-30T00:09:25.582Z,2.43
2019-01-30T00:10:30.563Z,2.45
2019-01-30T00:11:35.075Z,2.46
2019-01-30T00:12:40.224Z,2.43
2019-01-30T00:13:45.388Z,2.38
2019-01-30T00:14:50.730Z,2.41
2019-01-30T00:15:56.779Z,2.40
2019-01-30T00:17:02.015Z,2.54
2019-01-30T00:18:06.871Z,2.46
2019-01-30T00:19:11.749Z,2.40
2019-01-30T00:20:16.513Z,2.39
2019-01-30T00:21:21.303Z,2.34
2019-01-30T00:22:26.463Z,2.48
2019-01-30T00:23:30.977Z,2.37
2019-01-30T00:24:36.389Z,2.33
2019-01-30T00:25:41.166Z,2.32
2019-01-30T00:26:45.970Z,2.36
2019-01-30T00:27:50.727Z,2.39
2019-01-30T00:28:55.463Z,2.38
2019-01-30T00:30:04.046Z,2.36
2019-01-30T00:31:07.128Z,2.30
2019-01-30T00:32:14.983Z,2.32
2019-01-30T00:33:19.506Z,2.35
2019-01-30T00:34:24.593Z,2.32
2019-01-30T00:35:30.077Z,2.45
2019-01-30T00:36:34.810Z,2.39
2019-01-30T00:37:40.315Z,2.35
2019-01-30T00:38:45.103Z,2.28
2019-01-30T00:39:50.329Z,2.28
2019-01-30T00:40:55.510Z,2.33
2019-01-30T00:42:00.578Z,2.28
2019-01-30T00:43:05.379Z,2.21
2019-01-30T00:44:10.695Z,2.21
2019-01-30T00:45:15.874Z,2.27
2019-01-30T00:46:20.676Z,2.24
2019-01-30T00:47:25.759Z,2.30
2019-01-30T00:48:30.257Z,2.14
2019-01-30T00:49:35.030Z,2.05
2019-01-30T00:50:39.520Z,2.21
2019-01-30T00:51:44.339Z,2.23
2019-01-30T00:52:49.442Z,2.09
2019-01-30T00:53:54.609Z,2.22
2019-01-30T00:54:59.470Z,2.17
2019-01-30T00:56:04.226Z,2.20
2019-01-30T00:57:09.056Z,2.20
2019-01-30T00:58:14.152Z,2.17
2019-01-30T00:59:19.348Z,2.17
2019-01-30T01:00:24.154Z,2.11
2019-01-30T01:01:28.962Z,2.19
2019-01-30T01:02:33.728Z,2.27
2019-01-30T01:03:39.216Z,2.34
2019-01-30T01:04:44.355Z,2.30
2019-01-30T01:05:49.137Z,2.24
2019-01-30T01:06:53.910Z,2.20
2019-01-30T01:07:58.657Z,2.10
2019-01-30T01:09:04.237Z,2.07
2019-01-30T01:10:11.278Z,2.17
2019-01-30T01:11:15.863Z,2.25
2019-01-30T01:12:20.821Z,2.27
2019-01-30T01:13:25.693Z,2.33
2019-01-30T01:14:30.470Z,2.26
2019-01-30T01:15:35.564Z,2.25
2019-01-30T01:16:42.498Z,2.31
2019-01-30T01:17:46.791Z,2.22
2019-01-30T01:18:51.560Z,2.21
2019-01-30T01:19:56.069Z,2.35
2019-01-30T01:21:00.659Z,2.31
2019-01-30T01:22:05.480Z,2.26
2019-01-30T01:23:10.238Z,2.20
2019-01-30T01:24:15.660Z,2.20
2019-01-30T01:25:20.467Z,2.22
2019-01-30T01:26:25.338Z,2.23
2019-01-30T01:27:30.840Z,2.27
2019-01-30T01:28:35.676Z,2.14
2019-01-30T01:29:40.560Z,2.20
2019-01-30T01:30:45.718Z,2.23
2019-01-30T01:31:50.476Z,2.32
2019-01-30T01:32:55.276Z,2.28
2019-01-30T01:34:00.365Z,2.20
2019-01-30T01:35:05.770Z,2.19
2019-01-30T01:36:10.559Z,2.33
2019-01-30T01:37:15.653Z,2.19
2019-01-30T01:38:20.135Z,2.24
2019-01-30T01:39:24.619Z,2.28
2019-01-30T01:40:29.703Z,2.33
2019-01-30T01:41:34.610Z,2.29
2019-01-30T01:42:39.357Z,2.35
2019-01-30T01:43:44.157Z,2.34
2019-01-30T01:44:49.005Z,2.25
2019-01-30T01:45:53.838Z,2.28
2019-01-30T01:46:58.332Z,2.22
2019-01-30T01:48:03.110Z,2.31
2019-01-30T01:49:07.941Z,2.27
2019-01-30T01:50:14.500Z,2.32
2019-01-30T01:51:19.380Z,2.28
2019-01-30T01:52:24.163Z,2.33
2019-01-30T01:53:29.313Z,2.34
2019-01-30T01:54:34.622Z,2.43
2019-01-30T01:55:39.530Z,2.43
2019-01-30T01:56:44.786Z,2.40
2019-01-30T01:57:49.931Z,2.40
2019-01-30T01:58:54.787Z,2.33
2019-01-30T02:00:00.329Z,2.37
2019-01-30T02:01:04.769Z,2.35
2019-01-30T02:02:09.520Z,2.31
2019-01-30T02:03:14.302Z,2.34
2019-01-30T02:04:19.594Z,2.37
2019-01-30T02:05:24.626Z,2.39
2019-01-30T02:06:29.697Z,2.32
2019-01-30T02:07:34.920Z,2.36
2019-01-30T02:08:39.707Z,2.36
2019-01-30T02:09:44.475Z,2.41
2019-01-30T02:10:49.560Z,2.38
2019-01-30T02:11:54.517Z,2.29
2019-01-30T02:12:59.646Z,2.36
2019-01-30T02:14:04.744Z,2.44
2019-01-30T02:15:11.656Z,2.48
2019-01-30T02:16:16.546Z,2.36
2019-01-30T02:17:21.809Z,2.40
2019-01-30T02:18:27.426Z,2.43
2019-01-30T02:19:32.220Z,2.44
2019-01-30T02:20:36.983Z,2.59
2019-01-30T02:21:41.744Z,2.41
2019-01-30T02:22:46.517Z,2.37
2019-01-30T02:23:51.009Z,2.29
2019-01-30T02:24:56.437Z,2.35
2019-01-30T02:26:02.285Z,2.34
2019-01-30T02:27:07.428Z,2.29
2019-01-30T02:28:12.575Z,2.21
2019-01-30T02:29:18.309Z,2.31
2019-01-30T02:30:25.194Z,2.35
2019-01-30T02:31:29.981Z,2.24
2019-01-30T02:32:34.565Z,2.21
2019-01-30T02:33:39.772Z,2.24
2019-01-30T02:34:44.939Z,2.17
2019-01-30T02:35:49.417Z,2.23
2019-01-30T02:36:58.073Z,2.24
2019-01-30T02:38:02.849Z,2.15
2019-01-30T02:39:08.633Z,2.10
2019-01-30T02:40:15.123Z,2.22
2019-01-30T02:41:22.299Z,2.18
2019-01-30T02:42:27.080Z,2.17
2019-01-30T02:43:32.232Z,2.17
2019-01-30T02:44:36.848Z,2.13
2019-01-30T02:45:42.039Z,2.09
2019-01-30T02:46:47.022Z,2.07
2019-01-30T02:47:52.137Z,2.07
2019-01-30T02:48:56.921Z,1.94
2019-01-30T02:50:01.683Z,1.90
2019-01-30T02:51:06.452Z,1.89
2019-01-30T02:52:11.212Z,2.04
2019-01-30T02:53:15.695Z,2.01
2019-01-30T02:54:20.467Z,1.96
2019-01-30T02:55:25.217Z,1.93
2019-01-30T02:56:30.280Z,1.98
2019-01-30T02:57:35.037Z,1.94
2019-01-30T02:58:40.213Z,1.90
2019-01-30T02:59:45.109Z,1.85
2019-01-30T03:00:58.845Z,1.84
2019-01-30T03:02:33.277Z,1.98
2019-01-30T03:03:38.497Z,1.98
2019-01-30T03:04:43.663Z,1.92
2019-01-30T03:05:48.538Z,1.91
2019-01-30T03:06:53.037Z,1.95
2019-01-30T03:07:57.937Z,1.87
2019-01-30T03:09:04.276Z,1.81
2019-01-30T03:10:11.473Z,1.93
2019-01-30T03:11:16.212Z,1.93
2019-01-30T03:12:21.376Z,1.93
2019-01-30T03:13:25.864Z,1.90
2019-01-30T03:14:31.365Z,1.92
2019-01-30T03:15:36.155Z,1.96
2019-01-30T03:16:41.691Z,1.91
2019-01-30T03:17:46.451Z,1.96
2019-01-30T03:18:54.413Z,1.87
2019-01-30T03:19:59.385Z,1.97
2019-01-30T03:21:04.180Z,1.95
2019-01-30T03:22:08.677Z,1.85
2019-01-30T03:23:14.113Z,1.90
2019-01-30T03:24:19.194Z,1.91
2019-01-30T03:25:25.046Z,1.95
2019-01-30T03:26:29.817Z,1.93
2019-01-30T03:27:34.969Z,1.98
2019-01-30T03:28:40.083Z,2.00
2019-01-30T03:29:44.838Z,2.06
2019-01-30T03:30:49.926Z,2.06
2019-01-30T03:31:54.729Z,2.07
2019-01-30T03:32:59.574Z,2.11
2019-01-30T03:34:04.634Z,2.03
2019-01-30T03:35:09.129Z,2.05
2019-01-30T03:36:14.272Z,1.98
2019-01-30T03:37:19.356Z,2.05
2019-01-30T03:38:24.444Z,2.03
2019-01-30T03:39:29.589Z,2.05
2019-01-30T03:40:34.337Z,2.10
2019-01-30T03:41:39.566Z,2.06
2019-01-30T03:42:44.967Z,2.03
2019-01-30T03:43:50.132Z,2.08
2019-01-30T03:44:55.291Z,2.06
2019-01-30T03:46:00.345Z,1.97
2019-01-30T03:47:05.867Z,2.09
2019-01-30T03:48:10.995Z,2.11
2019-01-30T03:49:16.143Z,2.13
2019-01-30T03:50:21.031Z,2.15
2019-01-30T03:51:25.866Z,2.09
2019-01-30T03:52:31.038Z,2.07
2019-01-30T03:53:35.759Z,2.09
2019-01-30T03:54:40.856Z,2.08
2019-01-30T03:55:46.373Z,2.19
2019-01-30T03:56:51.164Z,2.17
2019-01-30T03:57:56.265Z,2.10
2019-01-30T03:59:01.030Z,2.14
2019-01-30T04:00:07.214Z,2.24
2019-01-30T04:01:11.726Z,2.22
2019-01-30T04:02:16.317Z,2.29
2019-01-30T04:03:21.081Z,2.24
2019-01-30T04:04:25.828Z,2.33
2019-01-30T04:05:30.734Z,2.20
2019-01-30T04:06:35.553Z,2.27
2019-01-30T04:07:40.321Z,2.23
2019-01-30T04:08:45.481Z,2.13
2019-01-30T04:09:50.339Z,2.21
2019-01-30T04:10:58.661Z,2.30
2019-01-30T04:12:03.678Z,2.22
2019-01-30T04:13:08.449Z,2.31
2019-01-30T04:14:13.562Z,2.35
2019-01-30T04:15:18.175Z,2.33
2019-01-30T04:16:23.339Z,2.35
2019-01-30T04:17:28.874Z,2.34
2019-01-30T04:18:34.179Z,2.21
2019-01-30T04:19:39.339Z,2.19
2019-01-30T04:20:44.122Z,2.23
2019-01-30T04:21:48.915Z,2.23
2019-01-30T04:22:53.685Z,2.29
2019-01-30T04:23:58.485Z,2.31
2019-01-30T04:25:03.678Z,2.27
2019-01-30T04:26:08.539Z,2.21
2019-01-30T04:27:13.605Z,2.26
2019-01-30T04:28:21.465Z,2.30
2019-01-30T04:29:26.617Z,2.24
2019-01-30T04:30:32.074Z,2.10
2019-01-30T04:31:38.543Z,2.11
2019-01-30T04:32:43.713Z,2.23
2019-01-30T04:33:48.693Z,2.26
2019-01-30T04:34:53.652Z,2.21
2019-01-30T04:35:59.099Z,2.16
2019-01-30T04:37:04.245Z,2.17
2019-01-30T04:38:09.041Z,2.15
2019-01-30T04:39:14.263Z,2.16
2019-01-30T04:40:20.097Z,2.09
2019-01-30T04:41:24.871Z,2.18
2019-01-30T04:42:29.350Z,2.13
2019-01-30T04:43:34.910Z,2.10
2019-01-30T04:44:39.750Z,2.13
2019-01-30T04:45:44.848Z,2.10
2019-01-30T04:46:50.399Z,2.11
2019-01-30T04:47:55.866Z,2.14
2019-01-30T04:49:00.640Z,2.20
2019-01-30T04:50:05.983Z,2.16
2019-01-30T04:51:11.108Z,2.21
2019-01-30T04:52:15.635Z,2.12
2019-01-30T04:53:20.882Z,2.06
2019-01-30T04:54:26.084Z,2.16
2019-01-30T04:55:30.667Z,2.07
2019-01-30T04:56:35.816Z,2.09
2019-01-30T04:57:41.126Z,2.14
2019-01-30T04:58:45.754Z,2.17
2019-01-30T04:59:50.529Z,2.09
2019-01-30T05:00:55.281Z,2.08
2019-01-30T05:02:00.079Z,2.04
2019-01-30T05:03:04.945Z,1.95
2019-01-30T05:04:09.777Z,1.99
2019-01-30T05:05:15.323Z,2.07
2019-01-30T05:06:22.536Z,2.11
2019-01-30T05:07:27.305Z,2.06
2019-01-30T05:08:32.069Z,2.10
2019-01-30T05:09:37.934Z,1.97
2019-01-30T05:10:42.702Z,2.04
2019-01-30T05:11:47.866Z,2.06
2019-01-30T05:12:52.944Z,2.00
2019-01-30T05:13:58.115Z,2.05
2019-01-30T05:15:02.721Z,2.04
2019-01-30T05:16:07.946Z,2.10
2019-01-30T05:17:13.085Z,2.11
2019-01-30T05:18:18.285Z,2.18
2019-01-30T05:19:22.762Z,1.96
2019-01-30T05:20:27.907Z,2.03
2019-01-30T05:21:33.387Z,1.98
2019-01-30T05:22:38.504Z,2.01
2019-01-30T05:23:43.623Z,2.13
2019-01-30T05:24:48.378Z,2.07
2019-01-30T05:25:53.181Z,1.99
2019-01-30T05:26:58.603Z,1.99
2019-01-30T05:28:03.482Z,2.05
2019-01-30T05:29:08.323Z,2.00
2019-01-30T05:30:32.702Z,1.85
2019-01-30T05:31:37.184Z,2.03
2019-01-30T05:32:42.247Z,2.04
2019-01-30T05:33:47.718Z,2.01
2019-01-30T05:34:52.528Z,2.00
2019-01-30T05:35:57.384Z,2.03
2019-01-30T05:37:02.846Z,2.00
2019-01-30T05:38:07.589Z,1.98
2019-01-30T05:39:12.682Z,1.93
2019-01-30T05:40:17.944Z,2.05
2019-01-30T05:41:22.769Z,1.97
2019-01-30T05:42:27.913Z,2.04
2019-01-30T05:43:33.066Z,1.98
2019-01-30T05:44:38.507Z,2.05
2019-01-30T05:45:43.821Z,2.07
2019-01-30T05:46:48.948Z,1.98
2019-01-30T05:47:54.155Z,1.95
2019-01-30T05:48:58.928Z,2.03
2019-01-30T05:50:03.389Z,2.06
2019-01-30T05:51:07.877Z,1.97
2019-01-30T05:52:12.913Z,1.94
2019-01-30T05:53:17.781Z,1.98
2019-01-30T05:54:23.256Z,1.99
2019-01-30T05:55:27.992Z,2.05
2019-01-30T05:56:32.947Z,2.10
2019-01-30T05:57:37.716Z,2.12
2019-01-30T05:58:42.513Z,2.19
2019-01-30T05:59:47.471Z,2.17
2019-01-30T06:00:51.999Z,2.11
2019-01-30T06:01:57.205Z,1.94
2019-01-30T06:03:02.438Z,1.97
2019-01-30T06:04:07.025Z,2.12
2019-01-30T06:05:11.845Z,2.12
2019-01-30T06:06:17.019Z,2.12
2019-01-30T06:07:21.793Z,2.22
2019-01-30T06:08:26.549Z,2.06
2019-01-30T06:09:31.308Z,2.10
2019-01-30T06:10:36.051Z,2.09
2019-01-30T06:11:40.553Z,2.10
2019-01-30T06:12:46.147Z,2.08
2019-01-30T06:13:51.388Z,2.01
2019-01-30T06:14:56.180Z,2.06
2019-01-30T06:16:01.288Z,1.88
2019-01-30T06:17:06.830Z,2.08
2019-01-30T06:18:11.997Z,2.09
2019-01-30T06:19:16.764Z,2.08
2019-01-30T06:20:26.605Z,2.13
2019-01-30T06:21:31.470Z,2.15
2019-01-30T06:22:35.950Z,2.07
2019-01-30T06:23:41.192Z,2.15
2019-01-30T06:24:46.745Z,1.98
2019-01-30T06:25:51.998Z,1.94
2019-01-30T06:26:57.513Z,2.04
2019-01-30T06:28:03.000Z,2.06
2019-01-30T06:29:07.776Z,1.99
2019-01-30T06:30:14.154Z,1.95
2019-01-30T06:31:19.352Z,1.99
2019-01-30T06:32:24.138Z,1.97
2019-01-30T06:33:29.249Z,2.10
2019-01-30T06:34:34.017Z,2.10
2019-01-30T06:35:39.300Z,2.14
2019-01-30T06:36:44.270Z,2.14
2019-01-30T06:37:49.387Z,2.17
2019-01-30T06:38:54.908Z,2.13
2019-01-30T06:40:00.738Z,2.15
2019-01-30T06:41:05.485Z,2.20
2019-01-30T06:42:10.776Z,2.17
2019-01-30T06:43:15.543Z,2.07
2019-01-30T06:44:20.693Z,2.12
2019-01-30T06:45:26.140Z,2.13
2019-01-30T06:46:31.425Z,2.21
2019-01-30T06:47:35.882Z,2.19
2019-01-30T06:48:40.670Z,2.17
2019-01-30T06:49:46.008Z,2.24
2019-01-30T06:50:51.173Z,2.21
2019-01-30T06:51:57.794Z,2.28
2019-01-30T06:53:03.314Z,2.15
2019-01-30T06:54:08.343Z,2.10
2019-01-30T06:55:13.097Z,2.25
2019-01-30T06:56:18.898Z,2.21
2019-01-30T06:57:23.405Z,2.19
2019-01-30T06:58:28.512Z,2.20
2019-01-30T06:59:34.385Z,2.11
2019-01-30T07:00:38.866Z,2.19
2019-01-30T07:01:43.706Z,2.24
2019-01-30T07:02:49.111Z,2.28
2019-01-30T07:03:54.247Z,2.39
2019-01-30T07:04:59.079Z,2.34
2019-01-30T07:06:04.131Z,2.34
2019-01-30T07:07:08.611Z,2.27
2019-01-30T07:08:13.456Z,2.29
2019-01-30T07:09:18.578Z,2.14
2019-01-30T07:10:28.080Z,2.12
2019-01-30T07:11:33.193Z,2.08
2019-01-30T07:12:37.972Z,2.11
2019-01-30T07:13:42.909Z,1.97
2019-01-30T07:14:48.074Z,1.70
2019-01-30T07:15:52.933Z,1.74
2019-01-30T07:16:58.041Z,1.59
2019-01-30T07:18:02.815Z,1.40
2019-01-30T07:19:07.715Z,1.49
2019-01-30T07:20:12.530Z,1.56
2019-01-30T07:21:17.299Z,1.36
2019-01-30T07:22:21.776Z,1.48
2019-01-30T07:23:26.882Z,1.42
2019-01-30T07:24:31.364Z,1.16
2019-01-30T07:25:36.930Z,1.26
2019-01-30T07:26:42.124Z,1.41
2019-01-30T07:27:47.271Z,1.47
2019-01-30T07:28:52.087Z,1.50
2019-01-30T07:29:57.378Z,1.34
2019-01-30T07:31:02.721Z,1.32
2019-01-30T07:32:07.480Z,1.41
2019-01-30T07:33:12.350Z,1.24
2019-01-30T07:34:17.450Z,1.22
2019-01-30T07:35:23.028Z,1.00
2019-01-30T07:36:27.530Z,1.17
2019-01-30T07:37:32.684Z,1.28
2019-01-30T07:38:37.797Z,1.32
2019-01-30T07:39:42.546Z,1.31
2019-01-30T07:40:47.649Z,1.30
2019-01-30T07:41:52.473Z,1.37
2019-01-30T07:42:58.113Z,1.43
2019-01-30T07:44:03.210Z,1.32
2019-01-30T07:45:09.631Z,1.25
2019-01-30T07:46:14.842Z,1.09
2019-01-30T07:47:20.243Z,1.18
2019-01-30T07:48:28.582Z,1.15
2019-01-30T07:49:31.285Z,1.14
2019-01-30T07:50:36.862Z,1.15
2019-01-30T07:51:42.649Z,1.22
2019-01-30T07:52:47.850Z,1.13
2019-01-30T07:53:54.808Z,1.29
2019-01-30T07:55:00.451Z,1.26
2019-01-30T07:56:05.229Z,1.24
2019-01-30T07:57:10.136Z,1.44
2019-01-30T07:58:15.586Z,1.42
2019-01-30T07:59:20.764Z,1.31
2019-01-30T08:00:30.557Z,1.25
2019-01-30T08:01:35.959Z,1.16
2019-01-30T08:02:40.865Z,1.34
2019-01-30T08:03:45.636Z,1.19
2019-01-30T08:04:50.917Z,1.37
2019-01-30T08:05:55.963Z,1.15
2019-01-30T08:07:03.065Z,0.96
2019-01-30T08:08:07.724Z,0.94
2019-01-30T08:09:12.212Z,1.12
2019-01-30T08:10:16.985Z,1.08
2019-01-30T08:11:21.834Z,1.14
2019-01-30T08:12:26.331Z,1.22
2019-01-30T08:13:31.482Z,1.27
2019-01-30T08:14:36.569Z,1.20
2019-01-30T08:15:41.063Z,1.20
2019-01-30T08:16:47.936Z,1.35
2019-01-30T08:17:52.075Z,1.43
2019-01-30T08:18:56.974Z,1.45
2019-01-30T08:20:02.053Z,1.30
2019-01-30T08:21:07.387Z,1.27
2019-01-30T08:22:12.594Z,1.30
2019-01-30T08:23:18.742Z,1.27
2019-01-30T08:24:24.497Z,1.28
2019-01-30T08:25:29.544Z,1.30
2019-01-30T08:26:34.355Z,1.38
2019-01-30T08:27:39.179Z,1.40
2019-01-30T08:28:44.589Z,1.30
2019-01-30T08:29:49.369Z,1.45
2019-01-30T08:30:54.481Z,1.39
2019-01-30T08:31:59.948Z,1.49
2019-01-30T08:33:05.994Z,1.30
2019-01-30T08:34:10.633Z,1.28
2019-01-30T08:35:15.513Z,1.42
2019-01-30T08:36:20.708Z,1.26
2019-01-30T08:37:25.917Z,1.41
2019-01-30T08:38:31.356Z,1.38
2019-01-30T08:39:36.201Z,1.40
2019-01-30T08:40:40.962Z,1.48
2019-01-30T08:41:45.779Z,1.55
2019-01-30T08:42:52.299Z,1.47
2019-01-30T08:43:58.055Z,1.46
2019-01-30T08:45:03.076Z,1.45
2019-01-30T08:46:07.549Z,1.35
2019-01-30T08:47:12.700Z,1.48
2019-01-30T08:48:17.861Z,1.47
2019-01-30T08:49:22.660Z,1.39
2019-01-30T08:50:27.213Z,1.55
2019-01-30T08:51:32.186Z,1.54
2019-01-30T08:52:37.296Z,1.63
2019-01-30T08:53:42.283Z,1.59
2019-01-30T08:54:47.503Z,1.69
2019-01-30T08:55:51.973Z,1.54
2019-01-30T08:56:57.063Z,1.51
2019-01-30T08:58:01.929Z,1.72
2019-01-30T08:59:07.017Z,1.56
2019-01-30T09:00:14.889Z,1.47
2019-01-30T09:01:20.086Z,1.60
2019-01-30T09:02:24.864Z,1.48
2019-01-30T09:03:29.665Z,1.56
2019-01-30T09:04:34.516Z,1.58
2019-01-30T09:05:39.656Z,1.55
2019-01-30T09:06:44.141Z,1.65
2019-01-30T09:07:48.923Z,1.50
2019-01-30T09:08:54.396Z,1.65
2019-01-30T09:09:59.185Z,1.60
2019-01-30T09:11:03.954Z,1.56
2019-01-30T09:12:08.726Z,1.66
2019-01-30T09:13:13.925Z,1.69
2019-01-30T09:14:18.929Z,1.67
2019-01-30T09:15:25.524Z,1.71
2019-01-30T09:16:30.728Z,1.80
2019-01-30T09:17:35.214Z,1.77
2019-01-30T09:18:40.046Z,1.86
2019-01-30T09:19:45.157Z,1.85
2019-01-30T09:20:50.268Z,1.86
2019-01-30T09:21:55.703Z,1.88
2019-01-30T09:23:00.481Z,1.84
2019-01-30T09:24:05.608Z,1.64
2019-01-30T09:25:11.767Z,1.77
2019-01-30T09:26:16.965Z,1.80
2019-01-30T09:27:24.212Z,1.82
2019-01-30T09:28:28.462Z,1.73
2019-01-30T09:29:33.962Z,1.92
2019-01-30T09:30:39.863Z,1.81
2019-01-30T09:31:45.061Z,1.88
2019-01-30T09:32:50.335Z,1.81
2019-01-30T09:33:55.932Z,1.80
2019-01-30T09:35:01.096Z,1.76
2019-01-30T09:36:05.875Z,1.73
2019-01-30T09:37:10.601Z,1.80
2019-01-30T09:38:15.369Z,1.76
2019-01-30T09:39:20.127Z,1.87
2019-01-30T09:40:25.205Z,1.96
2019-01-30T09:41:30.489Z,1.78
2019-01-30T09:42:35.628Z,1.67
2019-01-30T09:43:41.063Z,1.88
2019-01-30T09:44:46.235Z,1.83
2019-01-30T09:45:51.024Z,1.80
2019-01-30T09:46:56.181Z,1.80
2019-01-30T09:48:00.675Z,1.78
2019-01-30T09:49:05.252Z,1.73
2019-01-30T09:50:12.348Z,1.94
2019-01-30T09:51:17.318Z,1.90
2019-01-30T09:52:26.934Z,1.79
2019-01-30T09:53:29.049Z,1.73
2019-01-30T09:54:33.809Z,1.92
2019-01-30T09:55:39.353Z,2.06
2019-01-30T09:56:44.327Z,2.03
2019-01-30T09:57:48.913Z,1.94
2019-01-30T09:58:53.716Z,1.98
2019-01-30T09:59:58.849Z,1.89
2019-01-30T10:01:03.655Z,1.94
2019-01-30T10:02:08.230Z,2.01
2019-01-30T10:03:13.975Z,2.02
2019-01-30T10:04:19.690Z,1.95
2019-01-30T10:05:24.820Z,1.91
2019-01-30T10:06:29.571Z,1.83
2019-01-30T10:07:34.676Z,1.99
2019-01-30T10:08:39.728Z,1.87
2019-01-30T10:09:44.513Z,1.90
2019-01-30T10:10:50.177Z,2.05
2019-01-30T10:11:54.960Z,2.08
2019-01-30T10:12:59.777Z,2.10
2019-01-30T10:14:04.552Z,2.01
2019-01-30T10:15:09.988Z,1.93
2019-01-30T10:16:15.093Z,2.14
2019-01-30T10:17:20.376Z,1.97
2019-01-30T10:18:25.516Z,2.03
2019-01-30T10:19:30.005Z,1.99
2019-01-30T10:20:34.962Z,1.96
2019-01-30T10:21:39.740Z,1.94
2019-01-30T10:22:44.925Z,1.99
2019-01-30T10:23:50.466Z,2.09
2019-01-30T10:24:56.689Z,1.99
2019-01-30T10:26:02.102Z,2.00
2019-01-30T10:27:07.012Z,1.93
2019-01-30T10:28:16.671Z,2.05
2019-01-30T10:29:18.820Z,2.05
2019-01-30T10:30:26.259Z,2.05
2019-01-30T10:31:31.429Z,2.03
2019-01-30T10:32:36.536Z,1.93
2019-01-30T10:33:46.607Z,2.07
2019-01-30T10:34:47.436Z,1.92
2019-01-30T10:35:52.602Z,1.94
2019-01-30T10:36:57.114Z,1.99
2019-01-30T10:38:02.612Z,2.09
2019-01-30T10:39:10.482Z,1.99
2019-01-30T10:40:17.059Z,2.16
2019-01-30T10:41:22.320Z,2.17
2019-01-30T10:42:27.082Z,2.23
2019-01-30T10:43:32.187Z,2.11
2019-01-30T10:44:37.032Z,2.11
2019-01-30T10:45:41.814Z,2.00
2019-01-30T10:46:46.946Z,2.20
2019-01-30T10:47:51.743Z,2.36
2019-01-30T10:48:56.879Z,2.29
2019-01-30T10:50:02.191Z,2.28
2019-01-30T10:51:07.427Z,2.40
2019-01-30T10:52:12.377Z,2.57
2019-01-30T10:53:17.337Z,2.49
2019-01-30T10:54:22.398Z,2.58
2019-01-30T10:55:28.506Z,2.44
2019-01-30T10:56:33.289Z,2.65
2019-01-30T10:57:38.517Z,2.76
2019-01-30T10:58:42.976Z,2.85
2019-01-30T10:59:48.450Z,2.91
2019-01-30T11:00:54.029Z,3.03
2019-01-30T11:01:58.790Z,2.84
2019-01-30T11:03:03.899Z,2.90
2019-01-30T11:04:08.411Z,2.86
2019-01-30T11:05:13.282Z,2.84
2019-01-30T11:06:18.472Z,3.10
2019-01-30T11:07:23.523Z,3.03
2019-01-30T11:08:28.313Z,3.28
2019-01-30T11:09:33.211Z,3.17
2019-01-30T11:10:38.764Z,3.26
2019-01-30T11:11:43.513Z,3.25
2019-01-30T11:12:48.018Z,3.39
2019-01-30T11:13:53.647Z,3.71
2019-01-30T11:14:58.873Z,3.83
2019-01-30T11:16:03.359Z,3.60
2019-01-30T11:17:08.671Z,3.75
2019-01-30T11:18:16.030Z,3.69
2019-01-30T11:19:21.231Z,3.78
2019-01-30T11:20:25.717Z,3.86
2019-01-30T11:21:30.336Z,3.85
2019-01-30T11:22:35.427Z,3.59
2019-01-30T11:23:40.699Z,3.42
2019-01-30T11:24:45.898Z,3.37
2019-01-30T11:25:51.043Z,3.31
2019-01-30T11:26:56.151Z,3.06
2019-01-30T11:28:01.177Z,2.94
2019-01-30T11:29:06.335Z,3.00
2019-01-30T11:30:11.649Z,3.12
2019-01-30T11:31:16.900Z,3.04
2019-01-30T11:32:21.818Z,3.18
2019-01-30T11:33:26.613Z,3.07
2019-01-30T11:34:31.370Z,3.15
2019-01-30T11:35:36.161Z,3.12
2019-01-30T11:36:41.312Z,3.01
2019-01-30T11:37:46.082Z,2.94
2019-01-30T11:38:50.919Z,3.01
2019-01-30T11:39:55.824Z,3.11
2019-01-30T11:41:00.655Z,3.01
2019-01-30T11:42:06.150Z,2.96
2019-01-30T11:43:11.309Z,2.87
2019-01-30T11:44:16.569Z,2.71
2019-01-30T11:45:24.418Z,2.85
2019-01-30T11:46:28.918Z,2.99
2019-01-30T11:47:33.403Z,2.68
2019-01-30T11:48:38.640Z,2.84
2019-01-30T11:49:43.831Z,2.95
2019-01-30T11:50:48.637Z,2.94
2019-01-30T11:51:53.554Z,2.88
2019-01-30T11:52:58.344Z,2.88
2019-01-30T11:54:03.620Z,2.95
2019-01-30T11:55:10.106Z,2.88
2019-01-30T11:56:14.757Z,2.96
2019-01-30T11:57:19.775Z,2.94
2019-01-30T11:58:24.546Z,2.88
2019-01-30T11:59:29.683Z,2.98
2019-01-30T12:00:47.337Z,3.05
2019-01-30T12:01:52.243Z,3.06
2019-01-30T12:02:56.748Z,3.05
2019-01-30T12:04:01.888Z,2.79
2019-01-30T12:05:07.351Z,2.86
2019-01-30T12:06:11.911Z,2.94
2019-01-30T12:07:16.713Z,2.86
2019-01-30T12:08:21.550Z,2.66
2019-01-30T12:09:26.341Z,2.64
2019-01-30T12:10:31.133Z,2.57
2019-01-30T12:11:35.935Z,2.48
2019-01-30T12:12:41.185Z,2.54
2019-01-30T12:13:46.410Z,2.52
2019-01-30T12:14:51.194Z,2.46
2019-01-30T12:15:56.010Z,2.36
2019-01-30T12:17:01.170Z,2.42
2019-01-30T12:18:06.008Z,2.49
2019-01-30T12:19:11.060Z,2.64
2019-01-30T12:20:15.935Z,2.76
2019-01-30T12:21:20.766Z,2.96
2019-01-30T12:22:25.812Z,3.08
2019-01-30T12:23:30.619Z,3.00
2019-01-30T12:24:35.921Z,2.95
2019-01-30T12:25:40.684Z,2.83
2019-01-30T12:26:45.878Z,2.93
2019-01-30T12:27:51.144Z,2.68
2019-01-30T12:28:56.344Z,2.73
2019-01-30T12:30:00.926Z,2.63
2019-01-30T12:31:05.747Z,2.73
2019-01-30T12:32:11.114Z,2.53
2019-01-30T12:33:16.669Z,2.54
2019-01-30T12:34:28.183Z,2.58
2019-01-30T12:35:28.141Z,2.81
2019-01-30T12:36:33.313Z,2.80
2019-01-30T12:37:38.570Z,2.86
2019-01-30T12:38:43.339Z,2.93
2019-01-30T12:39:47.927Z,2.93
2019-01-30T12:40:53.095Z,2.93
2019-01-30T12:41:58.223Z,2.92
2019-01-30T12:43:03.011Z,2.90
2019-01-30T12:44:08.725Z,2.90
2019-01-30T12:45:17.153Z,2.88
2019-01-30T12:46:21.988Z,2.93
2019-01-30T12:47:27.179Z,2.91
2019-01-30T12:48:31.970Z,2.94
2019-01-30T12:49:36.896Z,2.93
2019-01-30T12:50:41.682Z,2.93
2019-01-30T12:51:46.840Z,2.88
2019-01-30T12:52:51.365Z,2.93
2019-01-30T12:53:55.927Z,2.86
2019-01-30T12:55:01.160Z,2.89
2019-01-30T12:56:06.295Z,2.85
2019-01-30T12:57:11.857Z,2.84
2019-01-30T12:58:17.463Z,2.79
2019-01-30T12:59:23.406Z,2.80
2019-01-30T13:00:30.052Z,2.85
2019-01-30T13:01:34.564Z,2.77
2019-01-30T13:02:39.384Z,2.80
2019-01-30T13:03:44.450Z,2.75
2019-01-30T13:04:49.986Z,2.71
2019-01-30T13:05:54.505Z,2.84
2019-01-30T13:06:59.669Z,2.78
2019-01-30T13:08:04.459Z,2.74
2019-01-30T13:09:10.601Z,2.75
2019-01-30T13:10:15.767Z,2.86
2019-01-30T13:11:20.584Z,2.90
2019-01-30T13:12:25.376Z,2.88
2019-01-30T13:13:30.616Z,2.89
2019-01-30T13:14:35.394Z,2.82
2019-01-30T13:15:41.490Z,2.83
2019-01-30T13:16:46.758Z,2.84
2019-01-30T13:17:51.532Z,2.88
2019-01-30T13:18:56.370Z,2.85
2019-01-30T13:20:01.556Z,2.80
2019-01-30T13:21:06.425Z,2.79
2019-01-30T13:22:11.186Z,2.76
2019-01-30T13:23:15.784Z,2.73
2019-01-30T13:24:21.040Z,2.75
2019-01-30T13:25:33.570Z,2.76
2019-01-30T13:26:38.686Z,2.74
2019-01-30T13:27:43.780Z,2.78
2019-01-30T13:28:48.294Z,2.87
2019-01-30T13:29:53.726Z,2.73
2019-01-30T13:30:58.689Z,2.80
2019-01-30T13:32:03.436Z,2.74
2019-01-30T13:33:09.488Z,2.86
2019-01-30T13:34:14.733Z,2.80
2019-01-30T13:35:19.601Z,2.86
2019-01-30T13:36:24.655Z,2.84
2019-01-30T13:37:30.238Z,2.87
2019-01-30T13:38:34.984Z,2.76
2019-01-30T13:39:40.204Z,2.78
2019-01-30T13:40:45.006Z,2.71
2019-01-30T13:41:49.593Z,2.71
2019-01-30T13:42:54.355Z,2.77
2019-01-30T13:43:59.482Z,2.70
2019-01-30T13:45:04.326Z,2.73
2019-01-30T13:46:09.193Z,2.73
2019-01-30T13:47:13.937Z,2.77
2019-01-30T13:48:22.420Z,2.63
2019-01-30T13:49:26.841Z,2.73
2019-01-30T13:50:31.962Z,2.75
2019-01-30T13:51:36.787Z,2.71
2019-01-30T13:52:42.361Z,2.75
2019-01-30T13:53:47.445Z,2.79
2019-01-30T13:54:52.224Z,2.76
2019-01-30T13:55:56.830Z,2.79
2019-01-30T13:57:01.651Z,2.90
2019-01-30T13:58:06.462Z,2.86
2019-01-30T13:59:11.266Z,2.84
2019-01-30T14:00:24.247Z,2.72
2019-01-30T14:01:29.711Z,2.75
2019-01-30T14:02:34.449Z,2.76
2019-01-30T14:03:39.991Z,2.74
2019-01-30T14:04:47.313Z,2.73
2019-01-30T14:05:51.247Z,2.76
2019-01-30T14:06:56.409Z,2.77
2019-01-30T14:08:01.581Z,2.71
2019-01-30T14:09:08.975Z,2.69
2019-01-30T14:10:13.810Z,2.69
2019-01-30T14:11:18.634Z,2.67
2019-01-30T14:12:23.149Z,2.68
2019-01-30T14:13:27.811Z,2.74
2019-01-30T14:14:32.668Z,2.76
2019-01-30T14:15:37.498Z,2.70
2019-01-30T14:16:42.688Z,2.75
2019-01-30T14:17:48.264Z,2.74
2019-01-30T14:18:53.444Z,2.79
2019-01-30T14:19:58.257Z,2.80
2019-01-30T14:21:04.110Z,2.79
2019-01-30T14:22:09.570Z,2.87
2019-01-30T14:23:14.116Z,2.71
2019-01-30T14:24:19.125Z,2.77
2019-01-30T14:25:23.573Z,2.76
2019-01-30T14:26:29.181Z,2.88
2019-01-30T14:27:34.241Z,2.79
2019-01-30T14:28:39.425Z,2.71